sensor_id;sensor_type;location;lat;lon;timestamp;P1;durP1;ratioP1;P2;durP2;ratioP2
55364;SDS011;41245;45.384;20.390;2022-11-20T00:01:05;121.75;;;39.38;;
55364;SDS011;41245;45.384;20.390;2022-11-20T00:03:51;134.65;;;37.70;;
55364;SDS011;41245;45.384;20.390;2022-11-20T00:06:18;91.53;;;26.67;;
55364;SDS011;41245;45.384;20.390;2022-11-20T00:08:45;114.18;;;35.63;;
55364;SDS011;41245;45.384;20.390;2022-11-20T00:13:38;109.63;;;36.45;;
55364;SDS011;41245;45.384;20.390;2022-11-20T00:16:05;90.20;;;26.60;;
55364;SDS011;41245;45.384;20.390;2022-11-20T00:18:34;124.65;;;37.30;;
55364;SDS011;41245;45.384;20.390;2022-11-20T00:21:01;114.50;;;34.35;;
55364;SDS011;41245;45.384;20.390;2022-11-20T00:23:46;110.68;;;30.98;;
55364;SDS011;41245;45.384;20.390;2022-11-20T00:26:13;115.80;;;34.08;;
55364;SDS011;41245;45.384;20.390;2022-11-20T00:28:40;122.63;;;36.58;;
55364;SDS011;41245;45.384;20.390;2022-11-20T00:31:08;118.53;;;35.33;;
55364;SDS011;41245;45.384;20.390;2022-11-20T00:33:36;108.18;;;30.88;;
55364;SDS011;41245;45.384;20.390;2022-11-20T00:36:05;129.15;;;38.25;;
55364;SDS011;41245;45.384;20.390;2022-11-20T00:38:33;143.93;;;37.35;;
55364;SDS011;41245;45.384;20.390;2022-11-20T00:40:59;120.25;;;34.35;;
55364;SDS011;41245;45.384;20.390;2022-11-20T00:43:27;121.68;;;36.63;;
55364;SDS011;41245;45.384;20.390;2022-11-20T00:45:59;114.75;;;33.63;;
55364;SDS011;41245;45.384;20.390;2022-11-20T00:48:37;138.98;;;38.17;;
55364;SDS011;41245;45.384;20.390;2022-11-20T00:51:02;108.28;;;32.38;;
55364;SDS011;41245;45.384;20.390;2022-11-20T00:53:28;128.48;;;38.20;;
55364;SDS011;41245;45.384;20.390;2022-11-20T00:56:08;113.35;;;36.13;;
55364;SDS011;41245;45.384;20.390;2022-11-20T00:58:38;136.38;;;39.83;;
55364;SDS011;41245;45.384;20.390;2022-11-20T01:01:12;138.80;;;36.55;;
55364;SDS011;41245;45.384;20.390;2022-11-20T01:03:44;138.70;;;37.45;;
55364;SDS011;41245;45.384;20.390;2022-11-20T01:06:30;105.93;;;30.67;;
55364;SDS011;41245;45.384;20.390;2022-11-20T01:08:58;133.60;;;39.97;;
55364;SDS011;41245;45.384;20.390;2022-11-20T01:11:30;137.52;;;39.10;;
55364;SDS011;41245;45.384;20.390;2022-11-20T01:13:58;99.63;;;28.30;;
55364;SDS011;41245;45.384;20.390;2022-11-20T01:16:26;152.95;;;42.92;;
55364;SDS011;41245;45.384;20.390;2022-11-20T01:18:54;151.87;;;42.53;;
55364;SDS011;41245;45.384;20.390;2022-11-20T01:21:23;131.98;;;36.33;;
55364;SDS011;41245;45.384;20.390;2022-11-20T01:23:53;132.70;;;38.80;;
55364;SDS011;41245;45.384;20.390;2022-11-20T01:26:20;133.98;;;38.50;;
55364;SDS011;41245;45.384;20.390;2022-11-20T01:28:48;79.38;;;25.17;;
55364;SDS011;41245;45.384;20.390;2022-11-20T01:31:16;111.32;;;32.22;;
55364;SDS011;41245;45.384;20.390;2022-11-20T01:33:44;86.63;;;28.83;;
55364;SDS011;41245;45.384;20.390;2022-11-20T01:36:12;117.57;;;34.20;;
55364;SDS011;41245;45.384;20.390;2022-11-20T01:38:38;69.63;;;18.75;;
55364;SDS011;41245;45.384;20.390;2022-11-20T01:41:05;79.43;;;22.42;;
55364;SDS011;41245;45.384;20.390;2022-11-20T01:43:31;85.15;;;24.08;;
55364;SDS011;41245;45.384;20.390;2022-11-20T01:46:13;106.88;;;31.42;;
55364;SDS011;41245;45.384;20.390;2022-11-20T01:48:46;124.25;;;32.90;;
55364;SDS011;41245;45.384;20.390;2022-11-20T01:51:18;112.05;;;33.00;;
55364;SDS011;41245;45.384;20.390;2022-11-20T01:53:47;102.47;;;31.40;;
55364;SDS011;41245;45.384;20.390;2022-11-20T01:56:15;103.03;;;32.17;;
55364;SDS011;41245;45.384;20.390;2022-11-20T01:58:43;69.25;;;21.17;;
55364;SDS011;41245;45.384;20.390;2022-11-20T02:01:13;115.63;;;33.67;;
55364;SDS011;41245;45.384;20.390;2022-11-20T02:03:39;79.05;;;23.35;;
55364;SDS011;41245;45.384;20.390;2022-11-20T02:08:32;89.03;;;29.20;;
55364;SDS011;41245;45.384;20.390;2022-11-20T02:10:58;87.45;;;28.25;;
55364;SDS011;41245;45.384;20.390;2022-11-20T02:13:24;97.70;;;26.50;;
55364;SDS011;41245;45.384;20.390;2022-11-20T02:18:45;91.53;;;29.92;;
55364;SDS011;41245;45.384;20.390;2022-11-20T02:21:13;89.70;;;26.80;;
55364;SDS011;41245;45.384;20.390;2022-11-20T02:26:23;76.93;;;25.70;;
55364;SDS011;41245;45.384;20.390;2022-11-20T02:28:52;91.30;;;30.42;;
55364;SDS011;41245;45.384;20.390;2022-11-20T02:31:19;74.20;;;23.67;;
55364;SDS011;41245;45.384;20.390;2022-11-20T02:33:45;92.25;;;29.80;;
55364;SDS011;41245;45.384;20.390;2022-11-20T02:36:11;86.47;;;26.55;;
55364;SDS011;41245;45.384;20.390;2022-11-20T02:38:40;91.22;;;30.83;;
55364;SDS011;41245;45.384;20.390;2022-11-20T02:41:08;92.63;;;30.85;;
55364;SDS011;41245;45.384;20.390;2022-11-20T02:43:33;85.40;;;28.42;;
55364;SDS011;41245;45.384;20.390;2022-11-20T02:45:59;91.53;;;30.00;;
55364;SDS011;41245;45.384;20.390;2022-11-20T02:48:25;91.55;;;28.35;;
55364;SDS011;41245;45.384;20.390;2022-11-20T02:50:50;79.57;;;25.48;;
55364;SDS011;41245;45.384;20.390;2022-11-20T02:53:16;99.65;;;29.00;;
55364;SDS011;41245;45.384;20.390;2022-11-20T02:55:42;107.13;;;32.55;;
55364;SDS011;41245;45.384;20.390;2022-11-20T02:58:07;93.60;;;28.30;;
55364;SDS011;41245;45.384;20.390;2022-11-20T03:00:33;89.82;;;29.08;;
55364;SDS011;41245;45.384;20.390;2022-11-20T03:03:01;96.50;;;33.50;;
55364;SDS011;41245;45.384;20.390;2022-11-20T03:05:27;74.93;;;25.30;;
55364;SDS011;41245;45.384;20.390;2022-11-20T03:07:52;103.47;;;32.60;;
55364;SDS011;41245;45.384;20.390;2022-11-20T03:10:18;85.47;;;27.13;;
55364;SDS011;41245;45.384;20.390;2022-11-20T03:12:44;82.00;;;27.77;;
55364;SDS011;41245;45.384;20.390;2022-11-20T03:15:10;87.10;;;27.70;;
55364;SDS011;41245;45.384;20.390;2022-11-20T03:17:36;86.78;;;24.15;;
55364;SDS011;41245;45.384;20.390;2022-11-20T03:20:01;56.20;;;17.33;;
55364;SDS011;41245;45.384;20.390;2022-11-20T03:22:30;86.25;;;25.70;;
55364;SDS011;41245;45.384;20.390;2022-11-20T03:24:56;78.13;;;29.00;;
55364;SDS011;41245;45.384;20.390;2022-11-20T03:27:21;76.75;;;22.38;;
55364;SDS011;41245;45.384;20.390;2022-11-20T03:29:47;68.25;;;22.10;;
55364;SDS011;41245;45.384;20.390;2022-11-20T03:32:13;78.35;;;28.75;;
55364;SDS011;41245;45.384;20.390;2022-11-20T03:34:38;78.47;;;27.63;;
55364;SDS011;41245;45.384;20.390;2022-11-20T03:37:04;74.35;;;23.73;;
55364;SDS011;41245;45.384;20.390;2022-11-20T03:39:30;77.28;;;24.58;;
55364;SDS011;41245;45.384;20.390;2022-11-20T03:41:55;85.15;;;29.25;;
55364;SDS011;41245;45.384;20.390;2022-11-20T03:44:21;82.85;;;27.50;;
55364;SDS011;41245;45.384;20.390;2022-11-20T03:46:47;77.47;;;23.63;;
55364;SDS011;41245;45.384;20.390;2022-11-20T03:49:12;71.10;;;27.13;;
55364;SDS011;41245;45.384;20.390;2022-11-20T03:51:38;58.53;;;20.35;;
55364;SDS011;41245;45.384;20.390;2022-11-20T03:54:07;68.50;;;25.42;;
55364;SDS011;41245;45.384;20.390;2022-11-20T03:56:34;44.40;;;14.15;;
55364;SDS011;41245;45.384;20.390;2022-11-20T03:59:02;70.68;;;23.90;;
55364;SDS011;41245;45.384;20.390;2022-11-20T04:01:29;47.47;;;16.48;;
55364;SDS011;41245;45.384;20.390;2022-11-20T04:03:57;60.25;;;23.27;;
55364;SDS011;41245;45.384;20.390;2022-11-20T04:06:24;63.45;;;25.08;;
55364;SDS011;41245;45.384;20.390;2022-11-20T04:08:54;58.45;;;22.40;;
55364;SDS011;41245;45.384;20.390;2022-11-20T04:11:25;66.28;;;22.65;;
55364;SDS011;41245;45.384;20.390;2022-11-20T04:13:55;64.60;;;22.85;;
55364;SDS011;41245;45.384;20.390;2022-11-20T04:16:23;71.32;;;22.77;;
55364;SDS011;41245;45.384;20.390;2022-11-20T04:18:53;60.60;;;22.65;;
55364;SDS011;41245;45.384;20.390;2022-11-20T04:23:45;64.65;;;23.90;;
55364;SDS011;41245;45.384;20.390;2022-11-20T04:26:11;54.10;;;20.70;;
55364;SDS011;41245;45.384;20.390;2022-11-20T04:28:38;75.68;;;24.15;;
55364;SDS011;41245;45.384;20.390;2022-11-20T04:31:05;69.35;;;26.30;;
55364;SDS011;41245;45.384;20.390;2022-11-20T04:33:33;74.60;;;28.45;;
55364;SDS011;41245;45.384;20.390;2022-11-20T04:36:00;82.50;;;29.45;;
55364;SDS011;41245;45.384;20.390;2022-11-20T04:38:30;96.90;;;33.60;;
55364;SDS011;41245;45.384;20.390;2022-11-20T04:40:57;119.80;;;43.35;;
55364;SDS011;41245;45.384;20.390;2022-11-20T04:43:27;69.00;;;22.45;;
55364;SDS011;41245;45.384;20.390;2022-11-20T04:45:53;81.40;;;26.25;;
55364;SDS011;41245;45.384;20.390;2022-11-20T04:48:20;54.88;;;19.13;;
55364;SDS011;41245;45.384;20.390;2022-11-20T04:50:46;60.03;;;20.13;;
55364;SDS011;41245;45.384;20.390;2022-11-20T04:53:11;63.25;;;21.77;;
55364;SDS011;41245;45.384;20.390;2022-11-20T04:55:37;82.40;;;28.20;;
55364;SDS011;41245;45.384;20.390;2022-11-20T04:58:03;50.65;;;17.63;;
55364;SDS011;41245;45.384;20.390;2022-11-20T05:00:28;89.82;;;24.40;;
55364;SDS011;41245;45.384;20.390;2022-11-20T05:02:54;86.90;;;27.02;;
55364;SDS011;41245;45.384;20.390;2022-11-20T05:05:20;83.32;;;27.88;;
55364;SDS011;41245;45.384;20.390;2022-11-20T05:07:45;64.10;;;17.75;;
55364;SDS011;41245;45.384;20.390;2022-11-20T05:10:11;103.82;;;34.15;;
55364;SDS011;41245;45.384;20.390;2022-11-20T05:12:37;84.60;;;29.48;;
55364;SDS011;41245;45.384;20.390;2022-11-20T05:15:02;71.85;;;21.92;;
55364;SDS011;41245;45.384;20.390;2022-11-20T05:17:28;124.35;;;38.30;;
55364;SDS011;41245;45.384;20.390;2022-11-20T05:19:54;121.50;;;35.78;;
55364;SDS011;41245;45.384;20.390;2022-11-20T05:22:20;122.13;;;41.38;;
55364;SDS011;41245;45.384;20.390;2022-11-20T05:24:45;135.93;;;40.33;;
55364;SDS011;41245;45.384;20.390;2022-11-20T05:27:11;66.25;;;22.08;;
55364;SDS011;41245;45.384;20.390;2022-11-20T05:29:37;113.35;;;36.83;;
55364;SDS011;41245;45.384;20.390;2022-11-20T05:32:02;110.80;;;37.45;;
55364;SDS011;41245;45.384;20.390;2022-11-20T05:34:31;92.65;;;29.10;;
55364;SDS011;41245;45.384;20.390;2022-11-20T05:36:56;131.02;;;37.25;;
55364;SDS011;41245;45.384;20.390;2022-11-20T05:39:22;114.00;;;33.05;;
55364;SDS011;41245;45.384;20.390;2022-11-20T05:41:48;101.70;;;35.05;;
55364;SDS011;41245;45.384;20.390;2022-11-20T05:44:33;118.03;;;32.97;;
55364;SDS011;41245;45.384;20.390;2022-11-20T05:46:59;126.63;;;38.65;;
55364;SDS011;41245;45.384;20.390;2022-11-20T05:49:25;119.45;;;36.80;;
55364;SDS011;41245;45.384;20.390;2022-11-20T05:51:50;139.15;;;39.22;;
55364;SDS011;41245;45.384;20.390;2022-11-20T05:54:16;107.00;;;34.05;;
55364;SDS011;41245;45.384;20.390;2022-11-20T05:56:42;132.32;;;41.60;;
55364;SDS011;41245;45.384;20.390;2022-11-20T05:59:08;89.97;;;25.13;;
55364;SDS011;41245;45.384;20.390;2022-11-20T06:01:33;123.05;;;39.00;;
55364;SDS011;41245;45.384;20.390;2022-11-20T06:04:01;134.13;;;43.90;;
55364;SDS011;41245;45.384;20.390;2022-11-20T06:06:27;125.25;;;41.38;;
55364;SDS011;41245;45.384;20.390;2022-11-20T06:08:53;109.50;;;34.70;;
55364;SDS011;41245;45.384;20.390;2022-11-20T06:11:19;128.10;;;39.22;;
55364;SDS011;41245;45.384;20.390;2022-11-20T06:13:45;106.10;;;31.40;;
55364;SDS011;41245;45.384;20.390;2022-11-20T06:16:12;123.40;;;38.30;;
55364;SDS011;41245;45.384;20.390;2022-11-20T06:18:39;133.20;;;41.63;;
55364;SDS011;41245;45.384;20.390;2022-11-20T06:21:06;149.43;;;44.88;;
55364;SDS011;41245;45.384;20.390;2022-11-20T06:23:34;117.28;;;30.70;;
55364;SDS011;41245;45.384;20.390;2022-11-20T06:26:02;135.05;;;39.75;;
55364;SDS011;41245;45.384;20.390;2022-11-20T06:28:29;140.50;;;42.85;;
55364;SDS011;41245;45.384;20.390;2022-11-20T06:30:55;126.82;;;41.40;;
55364;SDS011;41245;45.384;20.390;2022-11-20T06:33:21;121.85;;;40.65;;
55364;SDS011;41245;45.384;20.390;2022-11-20T06:35:46;148.27;;;38.75;;
55364;SDS011;41245;45.384;20.390;2022-11-20T06:38:12;128.73;;;45.42;;
55364;SDS011;41245;45.384;20.390;2022-11-20T06:40:41;133.55;;;43.88;;
55364;SDS011;41245;45.384;20.390;2022-11-20T06:43:07;144.53;;;46.27;;
55364;SDS011;41245;45.384;20.390;2022-11-20T06:45:34;136.52;;;46.70;;
55364;SDS011;41245;45.384;20.390;2022-11-20T06:48:00;132.40;;;46.90;;
55364;SDS011;41245;45.384;20.390;2022-11-20T06:50:25;150.70;;;41.92;;
55364;SDS011;41245;45.384;20.390;2022-11-20T06:52:51;143.93;;;45.33;;
55364;SDS011;41245;45.384;20.390;2022-11-20T06:55:17;122.70;;;36.05;;
55364;SDS011;41245;45.384;20.390;2022-11-20T06:57:42;127.53;;;44.28;;
55364;SDS011;41245;45.384;20.390;2022-11-20T07:00:08;127.93;;;45.22;;
55364;SDS011;41245;45.384;20.390;2022-11-20T07:02:34;117.05;;;44.83;;
55364;SDS011;41245;45.384;20.390;2022-11-20T07:05:00;121.07;;;47.50;;
55364;SDS011;41245;45.384;20.390;2022-11-20T07:07:25;125.03;;;42.85;;
55364;SDS011;41245;45.384;20.390;2022-11-20T07:09:51;115.82;;;44.60;;
55364;SDS011;41245;45.384;20.390;2022-11-20T07:12:17;131.15;;;44.00;;
55364;SDS011;41245;45.384;20.390;2022-11-20T07:14:42;147.63;;;50.72;;
55364;SDS011;41245;45.384;20.390;2022-11-20T07:17:08;142.63;;;55.78;;
55364;SDS011;41245;45.384;20.390;2022-11-20T07:19:34;140.98;;;55.55;;
55364;SDS011;41245;45.384;20.390;2022-11-20T07:21:59;149.43;;;54.05;;
55364;SDS011;41245;45.384;20.390;2022-11-20T07:24:25;135.30;;;44.63;;
55364;SDS011;41245;45.384;20.390;2022-11-20T07:26:51;147.10;;;49.55;;
55364;SDS011;41245;45.384;20.390;2022-11-20T07:29:16;133.50;;;43.97;;
55364;SDS011;41245;45.384;20.390;2022-11-20T07:31:42;152.05;;;50.55;;
55364;SDS011;41245;45.384;20.390;2022-11-20T07:34:08;178.40;;;68.18;;
55364;SDS011;41245;45.384;20.390;2022-11-20T07:36:34;140.45;;;44.75;;
55364;SDS011;41245;45.384;20.390;2022-11-20T07:39:00;146.27;;;56.72;;
55364;SDS011;41245;45.384;20.390;2022-11-20T07:41:25;160.23;;;54.40;;
55364;SDS011;41245;45.384;20.390;2022-11-20T07:43:52;145.50;;;49.60;;
55364;SDS011;41245;45.384;20.390;2022-11-20T07:46:18;140.02;;;48.65;;
55364;SDS011;41245;45.384;20.390;2022-11-20T07:48:44;140.65;;;54.92;;
55364;SDS011;41245;45.384;20.390;2022-11-20T07:51:09;142.07;;;50.67;;
55364;SDS011;41245;45.384;20.390;2022-11-20T07:53:35;134.70;;;51.30;;
55364;SDS011;41245;45.384;20.390;2022-11-20T07:56:01;158.30;;;46.20;;
55364;SDS011;41245;45.384;20.390;2022-11-20T07:58:30;144.30;;;56.85;;
55364;SDS011;41245;45.384;20.390;2022-11-20T08:00:58;157.38;;;64.32;;
55364;SDS011;41245;45.384;20.390;2022-11-20T08:03:28;146.52;;;52.92;;
55364;SDS011;41245;45.384;20.390;2022-11-20T08:05:54;133.68;;;49.22;;
55364;SDS011;41245;45.384;20.390;2022-11-20T08:08:23;123.40;;;44.80;;
55364;SDS011;41245;45.384;20.390;2022-11-20T08:10:48;115.15;;;47.63;;
55364;SDS011;41245;45.384;20.390;2022-11-20T08:13:14;104.40;;;44.45;;
55364;SDS011;41245;45.384;20.390;2022-11-20T08:15:58;108.53;;;43.90;;
55364;SDS011;41245;45.384;20.390;2022-11-20T08:18:24;112.68;;;44.65;;
55364;SDS011;41245;45.384;20.390;2022-11-20T08:20:49;140.05;;;52.15;;
55364;SDS011;41245;45.384;20.390;2022-11-20T08:23:15;125.95;;;44.20;;
55364;SDS011;41245;45.384;20.390;2022-11-20T08:25:41;118.57;;;44.22;;
55364;SDS011;41245;45.384;20.390;2022-11-20T08:28:07;116.47;;;47.20;;
55364;SDS011;41245;45.384;20.390;2022-11-20T08:30:34;118.20;;;45.97;;
55364;SDS011;41245;45.384;20.390;2022-11-20T08:33:05;114.18;;;46.22;;
55364;SDS011;41245;45.384;20.390;2022-11-20T08:35:33;112.35;;;43.33;;
55364;SDS011;41245;45.384;20.390;2022-11-20T08:38:00;136.80;;;51.42;;
55364;SDS011;41245;45.384;20.390;2022-11-20T08:40:26;128.77;;;48.20;;
55364;SDS011;41245;45.384;20.390;2022-11-20T08:42:51;104.65;;;46.35;;
55364;SDS011;41245;45.384;20.390;2022-11-20T08:45:18;106.50;;;41.72;;
55364;SDS011;41245;45.384;20.390;2022-11-20T08:47:44;106.95;;;42.60;;
55364;SDS011;41245;45.384;20.390;2022-11-20T08:50:12;132.18;;;50.92;;
55364;SDS011;41245;45.384;20.390;2022-11-20T08:52:38;118.07;;;44.50;;
55364;SDS011;41245;45.384;20.390;2022-11-20T08:55:04;102.22;;;41.50;;
55364;SDS011;41245;45.384;20.390;2022-11-20T08:57:32;111.18;;;44.78;;
55364;SDS011;41245;45.384;20.390;2022-11-20T08:59:58;107.68;;;40.70;;
55364;SDS011;41245;45.384;20.390;2022-11-20T09:02:24;118.25;;;49.13;;
55364;SDS011;41245;45.384;20.390;2022-11-20T09:04:50;109.82;;;47.95;;
55364;SDS011;41245;45.384;20.390;2022-11-20T09:07:16;111.05;;;43.83;;
55364;SDS011;41245;45.384;20.390;2022-11-20T09:09:41;96.63;;;39.67;;
55364;SDS011;41245;45.384;20.390;2022-11-20T09:12:07;97.00;;;41.58;;
55364;SDS011;41245;45.384;20.390;2022-11-20T09:14:33;96.25;;;34.13;;
55364;SDS011;41245;45.384;20.390;2022-11-20T09:16:58;103.93;;;44.63;;
55364;SDS011;41245;45.384;20.390;2022-11-20T09:19:24;100.47;;;43.58;;
55364;SDS011;41245;45.384;20.390;2022-11-20T09:21:50;109.75;;;40.15;;
55364;SDS011;41245;45.384;20.390;2022-11-20T09:24:16;99.95;;;40.50;;
55364;SDS011;41245;45.384;20.390;2022-11-20T09:26:42;91.90;;;36.90;;
55364;SDS011;41245;45.384;20.390;2022-11-20T09:29:08;109.28;;;44.58;;
55364;SDS011;41245;45.384;20.390;2022-11-20T09:31:34;112.38;;;43.83;;
55364;SDS011;41245;45.384;20.390;2022-11-20T09:34:00;91.13;;;34.67;;
55364;SDS011;41245;45.384;20.390;2022-11-20T09:36:26;110.82;;;37.40;;
55364;SDS011;41245;45.384;20.390;2022-11-20T09:38:51;116.57;;;44.55;;
55364;SDS011;41245;45.384;20.390;2022-11-20T09:44:24;101.38;;;36.47;;
55364;SDS011;41245;45.384;20.390;2022-11-20T09:47:07;91.07;;;36.53;;
55364;SDS011;41245;45.384;20.390;2022-11-20T09:54:57;100.38;;;37.70;;
55364;SDS011;41245;45.384;20.390;2022-11-20T09:57:30;89.43;;;39.92;;
55364;SDS011;41245;45.384;20.390;2022-11-20T10:00:00;84.00;;;32.78;;
55364;SDS011;41245;45.384;20.390;2022-11-20T10:02:37;83.83;;;35.00;;
55364;SDS011;41245;45.384;20.390;2022-11-20T10:08:24;72.22;;;30.58;;
55364;SDS011;41245;45.384;20.390;2022-11-20T10:22:02;76.43;;;32.45;;
55364;SDS011;41245;45.384;20.390;2022-11-20T10:25:04;73.30;;;30.58;;
55364;SDS011;41245;45.384;20.390;2022-11-20T10:30:26;72.85;;;31.23;;
55364;SDS011;41245;45.384;20.390;2022-11-20T10:32:56;76.82;;;33.15;;
55364;SDS011;41245;45.384;20.390;2022-11-20T10:41:24;71.70;;;25.65;;
55364;SDS011;41245;45.384;20.390;2022-11-20T10:44:05;86.60;;;35.15;;
55364;SDS011;41245;45.384;20.390;2022-11-20T10:46:41;84.65;;;37.47;;
55364;SDS011;41245;45.384;20.390;2022-11-20T10:49:16;79.10;;;29.85;;
55364;SDS011;41245;45.384;20.390;2022-11-20T10:54:33;75.70;;;31.13;;
55364;SDS011;41245;45.384;20.390;2022-11-20T10:57:24;70.68;;;28.90;;
55364;SDS011;41245;45.384;20.390;2022-11-20T11:00:08;75.70;;;33.70;;
55364;SDS011;41245;45.384;20.390;2022-11-20T11:03:13;77.45;;;31.95;;
55364;SDS011;41245;45.384;20.390;2022-11-20T11:07:57;78.82;;;32.05;;
55364;SDS011;41245;45.384;20.390;2022-11-20T11:10:25;75.70;;;34.13;;
55364;SDS011;41245;45.384;20.390;2022-11-20T11:12:57;82.00;;;32.15;;
55364;SDS011;41245;45.384;20.390;2022-11-20T11:15:30;75.05;;;32.03;;
55364;SDS011;41245;45.384;20.390;2022-11-20T11:18:22;80.35;;;31.52;;
55364;SDS011;41245;45.384;20.390;2022-11-20T11:20:52;79.85;;;31.90;;
55364;SDS011;41245;45.384;20.390;2022-11-20T11:23:35;83.18;;;32.20;;
55364;SDS011;41245;45.384;20.390;2022-11-20T11:26:02;77.32;;;30.67;;
55364;SDS011;41245;45.384;20.390;2022-11-20T11:28:42;81.47;;;33.30;;
55364;SDS011;41245;45.384;20.390;2022-11-20T11:31:22;84.85;;;35.67;;
55364;SDS011;41245;45.384;20.390;2022-11-20T11:34:03;88.60;;;38.13;;
55364;SDS011;41245;45.384;20.390;2022-11-20T11:36:29;91.38;;;33.70;;
55364;SDS011;41245;45.384;20.390;2022-11-20T11:38:55;94.95;;;35.53;;
55364;SDS011;41245;45.384;20.390;2022-11-20T11:41:25;85.57;;;34.17;;
55364;SDS011;41245;45.384;20.390;2022-11-20T11:43:57;89.65;;;34.35;;
55364;SDS011;41245;45.384;20.390;2022-11-20T11:46:52;112.15;;;38.08;;
55364;SDS011;41245;45.384;20.390;2022-11-20T11:49:20;105.68;;;41.08;;
55364;SDS011;41245;45.384;20.390;2022-11-20T11:54:25;106.40;;;39.65;;
55364;SDS011;41245;45.384;20.390;2022-11-20T11:56:55;111.82;;;35.47;;
55364;SDS011;41245;45.384;20.390;2022-11-20T11:59:41;102.22;;;37.55;;
55364;SDS011;41245;45.384;20.390;2022-11-20T12:02:21;109.75;;;39.42;;
55364;SDS011;41245;45.384;20.390;2022-11-20T12:04:54;106.55;;;37.13;;
55364;SDS011;41245;45.384;20.390;2022-11-20T12:07:41;92.15;;;37.42;;
55364;SDS011;41245;45.384;20.390;2022-11-20T12:13:15;102.40;;;36.85;;
55364;SDS011;41245;45.384;20.390;2022-11-20T12:15:59;111.43;;;37.95;;
55364;SDS011;41245;45.384;20.390;2022-11-20T12:18:30;103.13;;;38.13;;
55364;SDS011;41245;45.384;20.390;2022-11-20T12:26:21;99.32;;;38.63;;
55364;SDS011;41245;45.384;20.390;2022-11-20T12:29:15;113.93;;;42.58;;
55364;SDS011;41245;45.384;20.390;2022-11-20T12:43:17;84.53;;;26.23;;
55364;SDS011;41245;45.384;20.390;2022-11-20T12:46:26;108.25;;;39.13;;
55364;SDS011;41245;45.384;20.390;2022-11-20T13:00:14;93.75;;;35.45;;
55364;SDS011;41245;45.384;20.390;2022-11-20T13:08:42;96.50;;;38.05;;
55364;SDS011;41245;45.384;20.390;2022-11-20T13:11:30;100.32;;;36.65;;
55364;SDS011;41245;45.384;20.390;2022-11-20T13:16:52;116.43;;;47.10;;
55364;SDS011;41245;45.384;20.390;2022-11-20T13:19:29;91.93;;;36.10;;
55364;SDS011;41245;45.384;20.390;2022-11-20T13:21:55;104.40;;;38.65;;
55364;SDS011;41245;45.384;20.390;2022-11-20T13:29:43;105.05;;;39.78;;
55364;SDS011;41245;45.384;20.390;2022-11-20T13:32:14;104.35;;;38.30;;
55364;SDS011;41245;45.384;20.390;2022-11-20T13:34:52;104.97;;;40.00;;
55364;SDS011;41245;45.384;20.390;2022-11-20T13:37:27;113.10;;;43.22;;
55364;SDS011;41245;45.384;20.390;2022-11-20T13:42:35;105.10;;;39.65;;
55364;SDS011;41245;45.384;20.390;2022-11-20T13:45:30;93.38;;;35.28;;
55364;SDS011;41245;45.384;20.390;2022-11-20T13:47:57;108.75;;;35.95;;
55364;SDS011;41245;45.384;20.390;2022-11-20T14:01:49;104.35;;;35.30;;
55364;SDS011;41245;45.384;20.390;2022-11-20T14:04:19;110.20;;;37.90;;
55364;SDS011;41245;45.384;20.390;2022-11-20T14:06:51;110.05;;;38.85;;
55364;SDS011;41245;45.384;20.390;2022-11-20T14:09:27;100.85;;;36.35;;
55364;SDS011;41245;45.384;20.390;2022-11-20T14:11:55;99.90;;;35.15;;
55364;SDS011;41245;45.384;20.390;2022-11-20T14:14:23;83.78;;;32.15;;
55364;SDS011;41245;45.384;20.390;2022-11-20T14:16:50;93.00;;;34.33;;
55364;SDS011;41245;45.384;20.390;2022-11-20T14:21:49;86.75;;;35.15;;
55364;SDS011;41245;45.384;20.390;2022-11-20T14:24:21;100.18;;;33.33;;
55364;SDS011;41245;45.384;20.390;2022-11-20T14:26:48;94.70;;;37.58;;
55364;SDS011;41245;45.384;20.390;2022-11-20T14:29:19;102.97;;;37.58;;
55364;SDS011;41245;45.384;20.390;2022-11-20T14:31:52;113.90;;;42.28;;
55364;SDS011;41245;45.384;20.390;2022-11-20T14:34:23;110.63;;;40.60;;
55364;SDS011;41245;45.384;20.390;2022-11-20T14:36:52;104.32;;;40.53;;
55364;SDS011;41245;45.384;20.390;2022-11-20T14:39:42;107.20;;;45.20;;
55364;SDS011;41245;45.384;20.390;2022-11-20T14:42:18;112.25;;;42.20;;
55364;SDS011;41245;45.384;20.390;2022-11-20T14:44:49;113.60;;;40.30;;
55364;SDS011;41245;45.384;20.390;2022-11-20T14:47:18;92.32;;;36.67;;
55364;SDS011;41245;45.384;20.390;2022-11-20T14:49:49;101.20;;;38.20;;
55364;SDS011;41245;45.384;20.390;2022-11-20T14:52:20;105.78;;;38.30;;
55364;SDS011;41245;45.384;20.390;2022-11-20T14:54:56;87.32;;;32.80;;
55364;SDS011;41245;45.384;20.390;2022-11-20T14:57:30;94.97;;;38.08;;
55364;SDS011;41245;45.384;20.390;2022-11-20T15:00:04;104.65;;;40.47;;
55364;SDS011;41245;45.384;20.390;2022-11-20T15:02:42;111.60;;;37.45;;
55364;SDS011;41245;45.384;20.390;2022-11-20T15:05:12;98.28;;;38.33;;
55364;SDS011;41245;45.384;20.390;2022-11-20T15:07:40;102.43;;;41.90;;
55364;SDS011;41245;45.384;20.390;2022-11-20T15:10:24;108.65;;;43.08;;
55364;SDS011;41245;45.384;20.390;2022-11-20T15:12:51;99.75;;;39.03;;
55364;SDS011;41245;45.384;20.390;2022-11-20T15:15:29;93.35;;;40.15;;
55364;SDS011;41245;45.384;20.390;2022-11-20T15:18:00;106.38;;;40.65;;
55364;SDS011;41245;45.384;20.390;2022-11-20T15:20:27;111.40;;;43.80;;
55364;SDS011;41245;45.384;20.390;2022-11-20T15:22:55;110.88;;;41.47;;
55364;SDS011;41245;45.384;20.390;2022-11-20T15:25:21;107.65;;;39.22;;
55364;SDS011;41245;45.384;20.390;2022-11-20T15:27:49;112.65;;;39.75;;
55364;SDS011;41245;45.384;20.390;2022-11-20T15:30:21;103.20;;;39.22;;
55364;SDS011;41245;45.384;20.390;2022-11-20T15:32:47;95.57;;;38.05;;
55364;SDS011;41245;45.384;20.390;2022-11-20T15:35:14;83.80;;;30.55;;
55364;SDS011;41245;45.384;20.390;2022-11-20T15:37:40;100.07;;;35.80;;
55364;SDS011;41245;45.384;20.390;2022-11-20T15:40:07;100.30;;;39.83;;
55364;SDS011;41245;45.384;20.390;2022-11-20T15:42:33;85.28;;;35.53;;
55364;SDS011;41245;45.384;20.390;2022-11-20T15:44:59;96.18;;;40.38;;
55364;SDS011;41245;45.384;20.390;2022-11-20T15:47:27;108.72;;;43.08;;
55364;SDS011;41245;45.384;20.390;2022-11-20T15:49:55;107.00;;;41.35;;
55364;SDS011;41245;45.384;20.390;2022-11-20T15:52:20;102.90;;;39.47;;
55364;SDS011;41245;45.384;20.390;2022-11-20T15:54:47;103.75;;;39.25;;
55364;SDS011;41245;45.384;20.390;2022-11-20T15:57:13;85.60;;;35.17;;
55364;SDS011;41245;45.384;20.390;2022-11-20T15:59:39;96.28;;;41.55;;
55364;SDS011;41245;45.384;20.390;2022-11-20T16:02:10;107.25;;;41.58;;
55364;SDS011;41245;45.384;20.390;2022-11-20T16:04:36;105.88;;;40.10;;
55364;SDS011;41245;45.384;20.390;2022-11-20T16:07:02;100.05;;;41.35;;